createdAt,value
2019-02-27T00:01:17.583Z,86.03
2019-02-27T00:03:43.853Z,81.10
2019-02-27T00:06:09.861Z,85.60
2019-02-27T00:08:36.056Z,83.07
2019-02-27T00:11:02.375Z,82.03
2019-02-27T00:13:28.538Z,81.27
2019-02-27T00:15:54.911Z,82.03
2019-02-27T00:18:23.783Z,81.33
2019-02-27T00:20:48.924Z,82.07
2019-02-27T00:23:14.962Z,76.30
2019-02-27T00:25:41.016Z,79.60
2019-02-27T00:28:07.065Z,84.60
2019-02-27T00:30:33.207Z,81.70
2019-02-27T00:32:59.270Z,82.50
2019-02-27T00:35:25.339Z,83.07
2019-02-27T00:37:52.618Z,85.70
2019-02-27T00:40:18.862Z,80.50
2019-02-27T00:42:44.908Z,83.93
2019-02-27T00:45:10.926Z,82.27
2019-02-27T00:47:37.115Z,83.13
2019-02-27T00:50:06.550Z,77.97
2019-02-27T00:52:32.895Z,82.87
2019-02-27T00:54:58.951Z,80.40
2019-02-27T00:57:24.962Z,84.23
2019-02-27T00:59:51.009Z,82.97
2019-02-27T01:02:19.952Z,84.00
2019-02-27T01:04:45.057Z,84.50
2019-02-27T01:07:11.715Z,79.70
2019-02-27T01:09:39.548Z,80.13
2019-02-27T01:12:05.712Z,80.93
2019-02-27T01:14:31.836Z,83.63
2019-02-27T01:16:57.958Z,79.30
2019-02-27T01:19:23.989Z,78.10
2019-02-27T01:21:50.066Z,80.73
2019-02-27T01:24:17.412Z,78.40
2019-02-27T01:26:44.082Z,78.50
2019-02-27T01:29:10.234Z,79.77
2019-02-27T01:31:36.254Z,81.23
2019-02-27T01:34:02.367Z,78.57
2019-02-27T01:36:28.390Z,76.20
2019-02-27T01:38:54.527Z,78.40
2019-02-27T01:41:24.350Z,74.77
2019-02-27T01:43:48.503Z,71.70
2019-02-27T01:46:14.578Z,71.00
2019-02-27T01:49:00.490Z,75.07
2019-02-27T01:51:28.183Z,74.10
2019-02-27T01:53:54.515Z,73.57
2019-02-27T01:56:20.662Z,73.43
2019-02-27T01:58:46.817Z,69.30
2019-02-27T02:01:20.878Z,73.07
2019-02-27T02:03:47.609Z,74.60
2019-02-27T02:06:14.267Z,74.80
2019-02-27T02:08:40.357Z,72.87
2019-02-27T02:11:06.697Z,72.27
2019-02-27T02:13:48.807Z,67.40
2019-02-27T02:16:21.650Z,73.20
2019-02-27T02:19:24.945Z,69.83
2019-02-27T02:21:57.723Z,70.37
2019-02-27T02:24:46.887Z,70.80
2019-02-27T02:27:24.235Z,65.37
2019-02-27T02:30:30.006Z,65.50
2019-02-27T02:33:12.571Z,64.80
2019-02-27T02:35:50.693Z,68.93
2019-02-27T02:38:55.223Z,65.57
2019-02-27T02:41:46.274Z,62.80
2019-02-27T02:44:30.385Z,62.70
2019-02-27T02:47:03.424Z,63.40
2019-02-27T02:49:42.512Z,64.07
2019-02-27T02:52:26.914Z,63.87
2019-02-27T02:55:13.823Z,57.90
2019-02-27T02:58:07.986Z,59.70
2019-02-27T03:00:43.021Z,57.83
2019-02-27T03:03:19.386Z,55.57
2019-02-27T03:06:09.331Z,59.00
2019-02-27T03:08:56.383Z,60.40
2019-02-27T03:11:35.110Z,61.97
2019-02-27T03:14:38.836Z,55.80
2019-02-27T03:17:17.902Z,57.33
2019-02-27T03:19:46.358Z,58.13
2019-02-27T03:22:32.390Z,54.23
2019-02-27T03:25:04.219Z,52.50
2019-02-27T03:27:46.588Z,55.80
2019-02-27T03:30:36.868Z,55.57
2019-02-27T03:33:23.200Z,54.60
2019-02-27T03:36:03.339Z,56.40
2019-02-27T03:39:00.239Z,55.77
2019-02-27T03:41:36.977Z,52.07
2019-02-27T03:44:20.735Z,54.63
2019-02-27T03:46:54.961Z,51.47
2019-02-27T03:49:30.700Z,51.83
2019-02-27T03:52:18.326Z,50.90
2019-02-27T03:54:58.032Z,49.60
2019-02-27T03:57:39.513Z,51.07
2019-02-27T04:00:18.068Z,47.67
2019-02-27T04:02:56.631Z,49.70
2019-02-27T04:05:46.257Z,47.50
2019-02-27T04:08:32.969Z,49.90
2019-02-27T04:10:59.161Z,48.60
2019-02-27T04:13:27.765Z,48.67
2019-02-27T04:15:54.387Z,48.07
2019-02-27T04:18:20.653Z,47.27
2019-02-27T04:20:50.161Z,47.77
2019-02-27T04:23:14.916Z,48.47
2019-02-27T04:25:41.389Z,46.33
2019-02-27T04:28:07.509Z,44.47
2019-02-27T04:30:33.869Z,48.80
2019-02-27T04:32:59.887Z,47.73
2019-02-27T04:35:26.575Z,45.40
2019-02-27T04:37:54.410Z,47.50
2019-02-27T04:40:21.014Z,49.77
2019-02-27T04:42:49.090Z,46.97
2019-02-27T04:45:15.112Z,50.57
2019-02-27T04:47:41.134Z,46.93
2019-02-27T04:50:10.905Z,47.97
2019-02-27T04:52:35.514Z,47.83
2019-02-27T04:55:01.551Z,48.60
2019-02-27T04:57:28.102Z,50.40
2019-02-27T04:59:54.332Z,49.43
2019-02-27T05:02:20.449Z,49.63
2019-02-27T05:04:46.870Z,48.70
2019-02-27T05:07:12.900Z,49.47
2019-02-27T05:09:38.945Z,46.17
2019-02-27T05:12:05.076Z,47.33
2019-02-27T05:14:31.226Z,48.33
2019-02-27T05:16:57.404Z,47.50
2019-02-27T05:19:25.288Z,48.33
2019-02-27T05:21:52.449Z,50.03
2019-02-27T05:24:19.280Z,48.13
2019-02-27T05:26:45.354Z,48.10
2019-02-27T05:29:11.415Z,48.13
2019-02-27T05:31:40.730Z,48.00
2019-02-27T05:34:06.929Z,48.93
2019-02-27T05:36:33.895Z,49.30
2019-02-27T05:39:00.115Z,50.53
2019-02-27T05:41:26.215Z,51.77
2019-02-27T05:43:54.458Z,52.30
2019-02-27T05:46:20.551Z,49.57
2019-02-27T05:48:46.571Z,48.13
2019-02-27T05:51:12.633Z,49.30
2019-02-27T05:53:38.713Z,49.93
2019-02-27T05:56:04.810Z,49.30
2019-02-27T05:58:31.244Z,48.87
2019-02-27T06:00:57.741Z,49.87
2019-02-27T06:03:41.545Z,48.50
2019-02-27T06:06:11.488Z,46.80
2019-02-27T06:08:38.068Z,47.03
2019-02-27T06:11:03.997Z,48.83
2019-02-27T06:13:30.122Z,49.87
2019-02-27T06:15:56.211Z,45.60
2019-02-27T06:18:23.657Z,46.70
2019-02-27T06:20:51.807Z,44.43
2019-02-27T06:23:18.048Z,48.60
2019-02-27T06:25:44.182Z,46.07
2019-02-27T06:28:23.601Z,48.37
2019-02-27T06:30:49.681Z,45.40
2019-02-27T06:33:17.827Z,46.60
2019-02-27T06:35:43.928Z,48.37
2019-02-27T06:38:10.263Z,45.63
2019-02-27T06:40:36.761Z,46.40
2019-02-27T06:43:03.018Z,47.73
2019-02-27T06:45:29.364Z,43.30
2019-02-27T06:47:55.417Z,48.00
2019-02-27T06:50:25.274Z,42.90
2019-02-27T06:52:49.613Z,45.30
2019-02-27T06:55:15.800Z,46.13
2019-02-27T06:57:42.353Z,44.07
2019-02-27T07:00:19.812Z,43.13
2019-02-27T07:02:46.063Z,42.53
2019-02-27T07:05:13.599Z,43.57
2019-02-27T07:07:40.472Z,44.17
2019-02-27T07:10:09.675Z,42.50
2019-02-27T07:12:35.810Z,37.83
2019-02-27T07:15:02.628Z,39.33
2019-02-27T07:17:29.230Z,42.43
2019-02-27T07:19:59.084Z,43.90
2019-02-27T07:22:29.330Z,41.63
2019-02-27T07:24:53.149Z,37.10
2019-02-27T07:27:19.584Z,38.30
2019-02-27T07:29:45.714Z,36.90
2019-02-27T07:32:11.829Z,40.63
2019-02-27T07:34:38.416Z,39.30
2019-02-27T07:37:04.662Z,36.17
2019-02-27T07:39:32.856Z,37.97
2019-02-27T07:41:59.294Z,33.43
2019-02-27T07:44:25.480Z,32.73
2019-02-27T07:46:51.691Z,31.87
2019-02-27T07:49:17.754Z,31.87
2019-02-27T07:51:44.772Z,31.70
2019-02-27T07:54:10.904Z,32.17
2019-02-27T07:56:36.932Z,30.60
2019-02-27T07:59:03.068Z,30.07
2019-02-27T08:01:29.168Z,30.10
2019-02-27T08:03:55.320Z,33.60
2019-02-27T08:06:23.469Z,28.97
2019-02-27T08:08:49.303Z,32.13
2019-02-27T08:11:15.373Z,31.07
2019-02-27T08:13:41.515Z,28.90
2019-02-27T08:16:07.586Z,29.80
2019-02-27T08:18:36.601Z,30.40
2019-02-27T08:21:01.584Z,30.00
2019-02-27T08:23:27.760Z,28.07
2019-02-27T08:25:53.808Z,30.13
2019-02-27T08:28:20.977Z,29.47
2019-02-27T08:30:47.083Z,28.33
2019-02-27T08:33:15.140Z,27.87
2019-02-27T08:35:41.084Z,26.37
2019-02-27T08:38:07.207Z,27.47
2019-02-27T08:40:33.350Z,26.43
2019-02-27T08:42:59.355Z,27.40
2019-02-27T08:45:27.128Z,28.27
2019-02-27T08:47:54.162Z,24.30
2019-02-27T08:50:22.757Z,24.33
2019-02-27T08:52:51.530Z,28.20
2019-02-27T08:55:20.026Z,24.90
2019-02-27T08:57:45.947Z,22.70
2019-02-27T09:00:17.168Z,21.47
2019-02-27T09:02:43.388Z,21.67
2019-02-27T09:05:09.560Z,20.97
2019-02-27T09:07:36.475Z,21.97
2019-02-27T09:10:09.345Z,20.63
2019-02-27T09:12:35.434Z,21.07
2019-02-27T09:15:01.751Z,22.57
2019-02-27T09:17:27.926Z,22.03
2019-02-27T09:19:54.290Z,20.93
2019-02-27T09:22:20.413Z,22.00
2019-02-27T09:24:46.602Z,19.97
2019-02-27T09:27:12.743Z,21.17
2019-02-27T09:29:38.857Z,19.70
2019-02-27T09:32:05.026Z,20.03
2019-02-27T09:34:31.163Z,19.53
2019-02-27T09:36:57.455Z,17.77
2019-02-27T09:39:23.611Z,18.53
2019-02-27T09:41:51.252Z,20.40
2019-02-27T09:44:17.526Z,18.80
2019-02-27T09:46:43.702Z,15.90
2019-02-27T09:49:09.851Z,15.20
2019-02-27T09:51:35.942Z,14.90
2019-02-27T09:54:02.000Z,15.53
2019-02-27T09:56:29.107Z,15.93
2019-02-27T09:58:55.892Z,11.80
2019-02-27T10:01:21.929Z,12.30
2019-02-27T10:03:48.045Z,10.67
2019-02-27T10:06:14.335Z,10.97
2019-02-27T10:08:40.501Z,10.90
2019-02-27T10:11:06.954Z,9.40
2019-02-27T10:13:35.538Z,10.63
2019-02-27T10:16:01.731Z,10.40
2019-02-27T10:18:29.213Z,9.93
2019-02-27T10:20:55.306Z,10.60
2019-02-27T10:23:21.978Z,10.63
2019-02-27T10:25:49.843Z,10.63
2019-02-27T10:28:16.077Z,9.30
2019-02-27T10:30:42.200Z,9.50
2019-02-27T10:33:11.194Z,10.07
2019-02-27T10:35:38.401Z,9.23
2019-02-27T10:38:04.872Z,8.90
2019-02-27T10:40:31.000Z,8.87
2019-02-27T10:42:57.178Z,8.73
2019-02-27T10:45:23.495Z,9.83
2019-02-27T10:47:49.997Z,8.37
2019-02-27T10:50:16.237Z,8.60
2019-02-27T10:52:42.533Z,8.67
2019-02-27T10:55:16.836Z,8.20
2019-02-27T10:57:42.995Z,9.50
2019-02-27T11:00:13.172Z,8.40
2019-02-27T11:02:39.542Z,8.30
2019-02-27T11:05:06.635Z,8.20
2019-02-27T11:07:32.734Z,8.90
2019-02-27T11:09:58.863Z,8.57
2019-02-27T11:12:26.904Z,9.33
2019-02-27T11:14:53.141Z,8.67
2019-02-27T11:17:20.342Z,8.10
2019-02-27T11:19:46.970Z,8.67
2019-02-27T11:22:13.203Z,8.77
2019-02-27T11:24:39.342Z,8.77
2019-02-27T11:27:06.081Z,9.47
2019-02-27T11:29:33.151Z,8.57
2019-02-27T11:32:00.713Z,8.83
2019-02-27T11:34:26.921Z,8.30
2019-02-27T11:36:53.351Z,8.30
2019-02-27T11:39:19.955Z,8.00
2019-02-27T11:41:48.373Z,7.90
2019-02-27T11:44:14.941Z,8.47
2019-02-27T11:46:41.235Z,8.43
2019-02-27T11:49:07.581Z,8.40
2019-02-27T11:51:33.910Z,8.60
2019-02-27T11:54:00.186Z,9.60
2019-02-27T11:56:26.418Z,8.40
2019-02-27T11:58:55.436Z,9.43
2019-02-27T12:01:22.121Z,8.23
2019-02-27T12:03:48.981Z,7.90
2019-02-27T12:06:15.311Z,8.63
2019-02-27T12:08:41.558Z,9.20
2019-02-27T12:11:09.711Z,8.47
2019-02-27T12:13:35.742Z,8.40
2019-02-27T12:16:02.174Z,9.23
2019-02-27T12:18:28.231Z,10.23
2019-02-27T12:20:54.598Z,9.07
2019-02-27T12:23:20.781Z,9.77
2019-02-27T12:25:47.311Z,7.90
2019-02-27T12:28:15.184Z,8.13
2019-02-27T12:30:41.408Z,8.93
2019-02-27T12:33:07.718Z,8.60
2019-02-27T12:35:34.973Z,8.33
2019-02-27T12:38:01.325Z,9.03
2019-02-27T12:40:27.639Z,8.87
2019-02-27T12:42:54.188Z,7.83
2019-02-27T12:45:26.841Z,8.13
2019-02-27T12:47:54.100Z,8.13
2019-02-27T12:50:21.457Z,8.87
2019-02-27T12:52:48.276Z,8.20
2019-02-27T12:55:15.665Z,7.97
2019-02-27T12:57:42.005Z,8.10
2019-02-27T13:00:11.803Z,8.40
2019-02-27T13:02:39.788Z,9.87
2019-02-27T13:05:10.270Z,10.33
2019-02-27T13:07:36.430Z,10.07
2019-02-27T13:10:24.484Z,9.10
2019-02-27T13:12:51.946Z,9.43
2019-02-27T13:15:25.759Z,10.03
2019-02-27T13:17:56.542Z,8.50
2019-02-27T13:20:29.041Z,9.37
2019-02-27T13:22:55.289Z,8.90
2019-02-27T13:25:23.837Z,10.10
2019-02-27T13:27:49.396Z,11.40
2019-02-27T13:30:18.908Z,11.13
2019-02-27T13:32:45.086Z,11.17
2019-02-27T13:35:12.374Z,9.93
2019-02-27T13:37:38.402Z,10.77
2019-02-27T13:40:11.453Z,10.20
2019-02-27T13:42:37.693Z,10.63
2019-02-27T13:45:12.626Z,10.60
2019-02-27T13:47:35.972Z,10.27
2019-02-27T13:50:04.062Z,9.57
2019-02-27T13:52:30.516Z,10.80
2019-02-27T13:54:56.605Z,10.60
2019-02-27T13:57:25.713Z,11.97
2019-02-27T13:59:51.047Z,12.07
2019-02-27T14:02:17.349Z,12.23
2019-02-27T14:04:43.634Z,11.20
2019-02-27T14:07:10.036Z,11.43
2019-02-27T14:09:41.507Z,10.73
2019-02-27T14:12:08.340Z,11.33
2019-02-27T14:14:35.792Z,28.93
2019-02-27T14:17:01.925Z,16.77
2019-02-27T14:19:28.425Z,25.30
2019-02-27T14:21:56.090Z,45.37
2019-02-27T14:24:22.693Z,20.93
2019-02-27T14:26:48.963Z,23.97
2019-02-27T14:29:15.116Z,13.53
2019-02-27T14:31:43.401Z,14.23
2019-02-27T14:34:09.256Z,17.17
2019-02-27T14:36:35.541Z,14.47
2019-02-27T14:39:04.167Z,13.37
2019-02-27T14:41:32.444Z,11.50
2019-02-27T14:43:58.644Z,12.40
2019-02-27T14:46:24.937Z,11.83
2019-02-27T14:48:52.423Z,11.97
2019-02-27T14:51:19.417Z,13.40
2019-02-27T14:53:45.442Z,11.23
2019-02-27T14:56:11.489Z,12.57
2019-02-27T14:58:38.109Z,12.50
2019-02-27T15:01:05.970Z,12.07
2019-02-27T15:03:31.995Z,13.60
2019-02-27T15:05:58.145Z,12.60
2019-02-27T15:08:25.214Z,13.53
2019-02-27T15:10:52.173Z,13.97
2019-02-27T15:13:18.285Z,14.30
2019-02-27T15:15:45.277Z,13.83
2019-02-27T15:18:11.501Z,14.63
2019-02-27T15:20:40.422Z,14.60
2019-02-27T15:23:05.633Z,15.00
2019-02-27T15:25:32.074Z,14.43
2019-02-27T15:27:59.923Z,14.43
2019-02-27T15:30:30.223Z,13.37
2019-02-27T15:32:56.451Z,16.03
2019-02-27T15:35:22.651Z,15.63
2019-02-27T15:37:49.276Z,14.00
2019-02-27T15:40:20.662Z,14.50
2019-02-27T15:42:46.856Z,16.10
2019-02-27T15:45:17.982Z,14.50
2019-02-27T15:47:44.690Z,15.27
2019-02-27T15:50:16.435Z,15.60
2019-02-27T15:52:42.749Z,14.67
2019-02-27T15:55:10.917Z,16.07
2019-02-27T15:57:37.115Z,15.87
2019-02-27T16:00:07.059Z,18.50
2019-02-27T16:02:34.056Z,15.90
2019-02-27T16:05:01.804Z,15.77
2019-02-27T16:07:27.999Z,16.33
2019-02-27T16:09:54.111Z,15.23
2019-02-27T16:12:20.125Z,15.63
2019-02-27T16:14:47.951Z,15.70
2019-02-27T16:17:14.313Z,16.03
2019-02-27T16:19:42.117Z,15.23
2019-02-27T16:22:08.431Z,16.03
2019-02-27T16:24:34.453Z,16.23
2019-02-27T16:27:01.387Z,15.57
2019-02-27T16:29:28.220Z,16.07
2019-02-27T16:31:54.654Z,17.33
2019-02-27T16:34:20.778Z,16.20
2019-02-27T16:36:47.059Z,16.63
2019-02-27T16:39:13.855Z,15.90
2019-02-27T16:41:40.006Z,16.90
2019-02-27T16:44:06.292Z,18.50
2019-02-27T16:46:32.512Z,18.07
2019-02-27T16:48:58.617Z,18.77
2019-02-27T16:51:26.896Z,17.80
2019-02-27T16:53:53.226Z,19.10
2019-02-27T16:56:19.423Z,18.47
2019-02-27T16:58:45.457Z,17.93
2019-02-27T17:01:11.580Z,18.00
2019-02-27T17:03:38.160Z,17.60
2019-02-27T17:06:04.207Z,17.97
2019-02-27T17:08:32.998Z,19.03
2019-02-27T17:10:59.762Z,20.07
2019-02-27T17:13:26.453Z,18.40
2019-02-27T17:15:52.613Z,17.60
2019-02-27T17:18:18.830Z,32.37
2019-02-27T17:20:46.565Z,17.90
2019-02-27T17:23:12.966Z,17.20
2019-02-27T17:25:39.070Z,19.67
2019-02-27T17:28:05.125Z,19.83
2019-02-27T17:30:37.716Z,17.97
2019-02-27T17:33:05.407Z,19.40
2019-02-27T17:35:31.547Z,17.90
2019-02-27T17:37:58.351Z,16.50
2019-02-27T17:40:24.724Z,17.70
2019-02-27T17:42:54.527Z,18.73
2019-02-27T17:45:25.113Z,20.40
2019-02-27T17:47:51.427Z,18.23
2019-02-27T17:50:18.270Z,16.87
2019-02-27T17:52:48.718Z,15.93
2019-02-27T17:55:17.018Z,18.80
2019-02-27T17:57:43.692Z,17.70
2019-02-27T18:00:20.275Z,17.93
2019-02-27T18:02:48.924Z,17.73
2019-02-27T18:05:15.154Z,20.50
2019-02-27T18:07:42.749Z,20.77
2019-02-27T18:10:10.762Z,21.00
2019-02-27T18:12:36.902Z,20.20
2019-02-27T18:15:06.988Z,19.70
2019-02-27T18:17:34.852Z,19.93
2019-02-27T18:20:03.047Z,20.10
2019-02-27T18:22:29.710Z,19.33
2019-02-27T18:24:55.900Z,19.47
2019-02-27T18:27:24.707Z,23.03
2019-02-27T18:29:50.055Z,25.47
2019-02-27T18:32:16.250Z,23.10
2019-02-27T18:34:42.524Z,35.20
2019-02-27T18:37:08.740Z,27.57
2019-02-27T18:39:36.532Z,24.70
2019-02-27T18:42:03.180Z,22.73
2019-02-27T18:44:29.504Z,24.97
2019-02-27T18:46:56.221Z,23.10
2019-02-27T18:49:23.760Z,29.90
2019-02-27T18:51:51.470Z,24.43
2019-02-27T18:54:21.788Z,22.20
2019-02-27T18:56:45.643Z,22.10
2019-02-27T18:59:11.976Z,25.50
2019-02-27T19:01:41.351Z,22.90
2019-02-27T19:04:06.631Z,22.80
2019-02-27T19:06:33.572Z,22.40
2019-02-27T19:09:00.733Z,21.03
2019-02-27T19:11:26.899Z,23.90
2019-02-27T19:13:53.063Z,22.13
2019-02-27T19:16:20.718Z,23.27
2019-02-27T19:18:47.143Z,22.40
2019-02-27T19:21:13.362Z,20.17
2019-02-27T19:23:42.871Z,19.47
2019-02-27T19:26:09.422Z,19.27
2019-02-27T19:28:36.340Z,19.83
2019-02-27T19:31:02.752Z,19.43
2019-02-27T19:33:32.508Z,19.23
2019-02-27T19:35:58.961Z,21.50
2019-02-27T19:38:25.144Z,19.67
2019-02-27T19:40:53.130Z,21.63
2019-02-27T19:43:20.987Z,19.20
2019-02-27T19:45:48.377Z,20.50
2019-02-27T19:48:14.537Z,21.30
2019-02-27T19:50:45.334Z,22.27
2019-02-27T19:53:08.870Z,20.47
2019-02-27T19:55:34.960Z,19.87
2019-02-27T19:58:01.087Z,19.90
2019-02-27T20:00:34.938Z,20.60
2019-02-27T20:03:01.503Z,20.13
2019-02-27T20:05:29.021Z,20.53
2019-02-27T20:07:55.372Z,20.23
2019-02-27T20:10:21.513Z,19.47
2019-02-27T20:12:52.766Z,20.60
2019-02-27T20:15:20.616Z,18.40
2019-02-27T20:17:46.989Z,19.47
2019-02-27T20:20:14.501Z,20.60
2019-02-27T20:22:41.299Z,20.40
2019-02-27T20:25:10.277Z,19.40
2019-02-27T20:27:36.579Z,18.10
2019-02-27T20:30:06.028Z,20.93
2019-02-27T20:32:32.119Z,17.83
2019-02-27T20:34:59.793Z,22.17
2019-02-27T20:37:26.018Z,19.57
2019-02-27T20:39:52.057Z,19.10
2019-02-27T20:42:38.045Z,19.30
2019-02-27T20:45:10.495Z,18.70
2019-02-27T20:47:36.647Z,19.90
2019-02-27T20:50:06.355Z,19.40
2019-02-27T20:52:32.479Z,20.43
2019-02-27T20:54:59.886Z,18.70
2019-02-27T20:57:27.565Z,20.00
2019-02-27T21:00:00.750Z,19.17
2019-02-27T21:02:23.863Z,19.10
2019-02-27T21:04:49.914Z,20.73
2019-02-27T21:07:22.198Z,18.57
2019-02-27T21:09:45.146Z,20.17
2019-02-27T21:12:11.994Z,19.20
2019-02-27T21:14:38.216Z,18.20
2019-02-27T21:17:04.556Z,18.87
2019-02-27T21:19:30.706Z,17.90
2019-02-27T21:21:56.855Z,17.17
2019-02-27T21:24:22.883Z,17.63
2019-02-27T21:26:48.916Z,18.30
2019-02-27T21:29:15.134Z,17.10
2019-02-27T21:31:41.233Z,15.93
2019-02-27T21:34:07.314Z,17.20
2019-02-27T21:36:36.493Z,17.50
2019-02-27T21:39:02.757Z,18.73
2019-02-27T21:41:28.877Z,17.50
2019-02-27T21:43:56.654Z,19.00
2019-02-27T21:46:22.950Z,16.50
2019-02-27T21:48:49.074Z,18.00
2019-02-27T21:51:15.201Z,16.63
2019-02-27T21:53:41.305Z,16.60
2019-02-27T21:56:07.363Z,17.43
2019-02-27T21:58:33.398Z,17.70
2019-02-27T22:00:59.914Z,17.77
2019-02-27T22:03:25.935Z,18.60
2019-02-27T22:05:52.994Z,18.50
2019-02-27T22:08:19.913Z,17.93
2019-02-27T22:10:45.952Z,20.13
2019-02-27T22:13:11.995Z,18.23
2019-02-27T22:15:38.066Z,16.50
2019-02-27T22:18:04.116Z,21.47
2019-02-27T22:20:30.164Z,18.57
2019-02-27T22:22:56.428Z,18.00
2019-02-27T22:25:22.646Z,18.90
2019-02-27T22:27:48.950Z,18.57
2019-02-27T22:30:16.843Z,19.03
2019-02-27T22:32:47.747Z,17.73
2019-02-27T22:35:11.216Z,18.00
2019-02-27T22:37:37.220Z,18.97
2019-02-27T22:40:07.494Z,18.10
2019-02-27T22:42:33.681Z,17.03
2019-02-27T22:45:00.671Z,18.07
2019-02-27T22:47:27.755Z,19.40
2019-02-27T22:49:54.204Z,18.43
2019-02-27T22:52:20.893Z,17.07
2019-02-27T22:54:47.146Z,19.50
2019-02-27T22:57:13.326Z,18.80
2019-02-27T22:59:39.479Z,19.63
2019-02-27T23:02:05.842Z,17.93
2019-02-27T23:04:32.802Z,20.97
2019-02-27T23:06:59.308Z,20.37
2019-02-27T23:09:25.899Z,19.17
2019-02-27T23:11:54.688Z,19.80
2019-02-27T23:14:20.979Z,18.57
2019-02-27T23:16:47.045Z,21.13
2019-02-27T23:19:13.202Z,19.50
2019-02-27T23:21:39.602Z,18.90
2019-02-27T23:24:07.108Z,19.83
2019-02-27T23:26:33.675Z,21.37
2019-02-27T23:28:59.816Z,20.33
2019-02-27T23:31:27.493Z,20.00
2019-02-27T23:33:53.632Z,19.73
2019-02-27T23:36:22.120Z,21.80
2019-02-27T23:38:47.990Z,22.03
2019-02-27T23:41:14.143Z,22.70
2019-02-27T23:43:40.304Z,23.30
2019-02-27T23:46:06.456Z,21.40
2019-02-27T23:48:35.894Z,22.30
2019-02-27T23:51:00.599Z,24.97
2019-02-27T23:53:27.866Z,23.20
2019-02-27T23:55:54.045Z,24.37
2019-02-27T23:58:20.438Z,24.83
